Time;durP1;ratioP1;P1;durP2;ratioP2;P2;SDS_P1;SDS_P2;PMS_P1;PMS_P2;Temp;Humidity;BMP_temperature;BMP_pressure;BME280_temperature;BME280_humidity;BME280_pressure;Samples;Min_cycle;Max_cycle;Signal;HPM_P1;HPM_P2
2022/06/12 00:01:51;;;;;;;;;;;12.90;99.90;;;;;;5031594;28;19964;-81
2022/06/12 00:04:26;;;;;;;;;;;12.80;99.90;;;;;;5040845;28;19983;-81
2022/06/12 00:06:52;;;;;;;;;;;12.90;99.90;;;;;;5020644;28;19916;-79
2022/06/12 00:09:18;;;;;;;;;;;12.90;99.90;;;;;;5037585;28;19927;-83
2022/06/12 00:11:44;;;;;;;;;;;12.80;99.90;;;;;;5005069;28;19924;-80
2022/06/12 00:14:11;;;;;;;;;;;12.80;99.90;;;;;;5021945;28;19924;-79
2022/06/12 00:16:43;;;;;;;;;;;12.90;99.90;;;;;;5002042;28;20413;-81
2022/06/12 00:19:15;;;;;;;;;;;12.90;99.90;;;;;;5013830;28;20424;-81
2022/06/12 00:21:43;;;;;;;;;;;12.90;99.90;;;;;;5016464;28;20021;-81
2022/06/12 00:24:11;;;;;;;;;;;12.90;99.90;;;;;;5014452;28;19956;-82
2022/06/12 00:26:39;;;;;;;;;;;13.00;99.90;;;;;;4991215;28;19943;-81
2022/06/12 00:29:06;;;;;;;;;;;13.00;99.90;;;;;;5023011;28;20019;-79
2022/06/12 00:31:34;;;;;;;;;;;13.00;99.90;;;;;;5052307;28;19948;-80
2022/06/12 00:34:01;;;;;;;;;;;13.10;99.90;;;;;;5023640;28;20278;-79
2022/06/12 00:36:27;;;;;;;;;;;13.00;99.90;;;;;;5022752;28;19921;-80
2022/06/12 00:38:52;;;;;;;;;;;13.00;99.90;;;;;;5036852;28;20003;-80
2022/06/12 00:41:18;;;;;;;;;;;13.10;99.90;;;;;;5047235;28;19916;-79
2022/06/12 00:43:43;;;;;;;;;;;13.10;99.90;;;;;;5023159;28;20282;-79
2022/06/12 00:46:31;;;;;;;;;;;13.10;99.90;;;;;;5031308;28;20008;-81
2022/06/12 00:48:56;;;;;;;;;;;13.10;99.90;;;;;;5034922;28;19921;-80
2022/06/12 00:51:22;;;;;;;;;;;13.00;99.90;;;;;;5032358;28;19917;-81
2022/06/12 00:53:50;;;;;;;;;;;13.10;99.90;;;;;;4998700;28;19922;-81
2022/06/12 00:56:21;;;;;;;;;;;13.10;99.90;;;;;;4984543;28;20515;-81
2022/06/12 00:58:49;;;;;;;;;;;13.10;99.90;;;;;;5057662;28;19917;-80
2022/06/12 01:01:21;;;;;;;;;;;13.10;99.90;;;;;;5014752;28;20000;-80
2022/06/12 01:06:33;;;;;;;;;;;13.10;99.90;;;;;;5035703;28;19925;-80
2022/06/12 01:08:59;;;;;;;;;;;13.10;99.90;;;;;;5032540;28;19975;-80
2022/06/12 01:11:24;;;;;;;;;;;13.10;99.90;;;;;;5020388;28;19920;-81
2022/06/12 01:13:50;;;;;;;;;;;13.00;99.90;;;;;;5066355;28;19963;-82
2022/06/12 01:16:18;;;;;;;;;;;13.00;99.90;;;;;;5066681;28;19917;-81
2022/06/12 01:18:48;;;;;;;;;;;13.00;99.90;;;;;;5037411;28;19924;-81
2022/06/12 01:21:35;;;;;;;;;;;13.00;99.90;;;;;;5025458;28;20317;-81
2022/06/12 01:24:20;;;;;;;;;;;12.90;99.90;;;;;;5032935;28;20362;-79
2022/06/12 01:27:04;;;;;;;;;;;12.90;99.90;;;;;;5032560;28;19925;-80
2022/06/12 01:29:34;;;;;;;;;;;12.90;99.90;;;;;;5066902;28;20290;-80
2022/06/12 01:32:08;;;;;;;;;;;12.90;99.90;;;;;;5014181;28;19921;-79
2022/06/12 01:34:50;;;;;;;;;;;12.90;99.90;;;;;;5016528;28;19917;-79
2022/06/12 01:37:31;;;;;;;;;;;13.00;99.90;;;;;;5009445;28;19922;-79
2022/06/12 01:40:01;;;;;;;;;;;13.00;99.90;;;;;;5003308;28;19918;-80
2022/06/12 01:42:29;;;;;;;;;;;13.00;99.90;;;;;;5033053;28;19921;-80
2022/06/12 01:45:05;;;;;;;;;;;13.00;99.90;;;;;;5019606;28;20361;-81
2022/06/12 01:47:34;;;;;;;;;;;13.10;99.90;;;;;;5002903;28;20286;-82
2022/06/12 01:50:09;;;;;;;;;;;13.00;99.90;;;;;;5015616;28;20370;-80
2022/06/12 01:52:54;;;;;;;;;;;13.00;99.90;;;;;;5016280;28;19924;-81
2022/06/12 01:55:40;;;;;;;;;;;13.00;99.90;;;;;;5010232;28;19917;-82
2022/06/12 01:58:11;;;;;;;;;;;13.00;99.90;;;;;;5029681;28;20345;-81
2022/06/12 02:00:38;;;;;;;;;;;13.00;99.90;;;;;;4997976;28;20294;-81
2022/06/12 02:03:18;;;;;;;;;;;13.00;99.90;;;;;;5002464;28;19967;-78
2022/06/12 02:05:56;;;;;;;;;;;13.00;99.90;;;;;;5025737;28;19917;-81
2022/06/12 02:08:36;;;;;;;;;;;13.10;99.90;;;;;;4990460;28;19932;-81
2022/06/12 02:13:56;;;;;;;;;;;13.10;99.90;;;;;;5037018;28;20110;-82
2022/06/12 02:16:28;;;;;;;;;;;13.20;99.90;;;;;;5011308;28;19917;-81
2022/06/12 02:18:57;;;;;;;;;;;13.10;99.90;;;;;;5031783;28;19924;-81
2022/06/12 02:21:31;;;;;;;;;;;13.10;99.90;;;;;;5014898;28;19917;-79
2022/06/12 02:23:59;;;;;;;;;;;13.20;99.90;;;;;;5004387;28;19968;-80
2022/06/12 02:26:34;;;;;;;;;;;13.30;99.90;;;;;;5031935;28;20141;-79
2022/06/12 02:29:05;;;;;;;;;;;13.30;99.90;;;;;;5003768;28;19967;-81
2022/06/12 02:31:41;;;;;;;;;;;13.20;99.90;;;;;;5033393;28;20311;-79
2022/06/12 02:34:13;;;;;;;;;;;13.20;99.90;;;;;;5038497;28;20003;-80
2022/06/12 02:36:45;;;;;;;;;;;13.20;99.90;;;;;;5028909;28;20004;-80
2022/06/12 02:39:15;;;;;;;;;;;13.20;99.90;;;;;;5022663;28;20326;-81
2022/06/12 02:41:46;;;;;;;;;;;13.10;99.90;;;;;;5015057;28;19999;-78
2022/06/12 02:44:23;;;;;;;;;;;13.10;99.90;;;;;;5042010;28;20263;-81
2022/06/12 02:46:55;;;;;;;;;;;13.00;99.90;;;;;;5043058;28;19923;-81
2022/06/12 02:49:21;;;;;;;;;;;12.90;99.90;;;;;;5003495;28;19920;-81
2022/06/12 02:52:09;;;;;;;;;;;12.90;99.90;;;;;;5031566;28;19975;-80
2022/06/12 02:54:52;;;;;;;;;;;12.90;99.90;;;;;;5030819;28;20377;-80
2022/06/12 02:57:33;;;;;;;;;;;12.80;99.90;;;;;;5010952;28;19931;-80
2022/06/12 03:00:07;;;;;;;;;;;12.80;99.90;;;;;;5013703;28;20357;-79
2022/06/12 03:02:38;;;;;;;;;;;12.70;99.90;;;;;;5034778;28;19916;-81
2022/06/12 03:05:22;;;;;;;;;;;12.70;99.90;;;;;;5017875;28;19916;-78
2022/06/12 03:08:01;;;;;;;;;;;12.70;99.90;;;;;;5015325;28;19978;-80
2022/06/12 03:10:29;;;;;;;;;;;12.70;99.90;;;;;;5016899;28;19925;-79
2022/06/12 03:12:54;;;;;;;;;;;12.60;99.90;;;;;;5017683;28;20329;-81
2022/06/12 03:15:28;;;;;;;;;;;12.60;99.90;;;;;;5036308;28;19923;-82
2022/06/12 03:17:54;;;;;;;;;;;12.70;99.90;;;;;;5006701;28;19920;-82
2022/06/12 03:20:26;;;;;;;;;;;12.50;99.90;;;;;;5028859;28;19960;-82
2022/06/12 03:23:12;;;;;;;;;;;12.40;99.90;;;;;;5018652;28;19916;-85
2022/06/12 03:25:42;;;;;;;;;;;12.40;99.90;;;;;;5024570;28;20020;-80
2022/06/12 03:28:13;;;;;;;;;;;12.30;99.90;;;;;;5028369;28;19921;-82
2022/06/12 03:30:40;;;;;;;;;;;12.30;99.90;;;;;;5010078;28;19917;-83
2022/06/12 03:33:26;;;;;;;;;;;12.30;99.90;;;;;;5016514;28;20421;-83
2022/06/12 03:35:56;;;;;;;;;;;12.30;99.90;;;;;;5023477;28;20408;-82
2022/06/12 03:38:36;;;;;;;;;;;12.40;99.90;;;;;;5002157;28;19928;-81
2022/06/12 03:41:05;;;;;;;;;;;12.30;99.90;;;;;;5034835;28;20342;-81
2022/06/12 03:43:31;;;;;;;;;;;12.30;99.90;;;;;;5013461;28;19916;-81
2022/06/12 03:46:29;;;;;;;;;;;12.40;99.90;;;;;;5027804;28;19951;-81
2022/06/12 03:49:02;;;;;;;;;;;12.40;99.90;;;;;;4970040;28;19928;-80
2022/06/12 03:51:39;;;;;;;;;;;12.40;99.90;;;;;;5052043;28;20313;-79
2022/06/12 03:54:24;;;;;;;;;;;12.40;99.90;;;;;;5000899;28;20263;-80
2022/06/12 03:59:40;;;;;;;;;;;12.50;99.90;;;;;;5027154;28;19967;-78
2022/06/12 04:02:07;;;;;;;;;;;12.50;99.90;;;;;;5052548;28;19932;-83
2022/06/12 04:04:34;;;;;;;;;;;12.50;99.90;;;;;;5014922;28;19921;-83
2022/06/12 04:07:01;;;;;;;;;;;12.60;99.90;;;;;;5037949;28;19917;-85
2022/06/12 04:09:28;;;;;;;;;;;12.60;99.90;;;;;;5037068;28;19925;-81
2022/06/12 04:12:03;;;;;;;;;;;12.60;99.90;;;;;;5033359;28;19995;-82
2022/06/12 04:14:32;;;;;;;;;;;12.60;99.90;;;;;;5017759;28;19917;-79
2022/06/12 04:16:59;;;;;;;;;;;12.70;99.90;;;;;;5051522;28;19916;-81
2022/06/12 04:19:26;;;;;;;;;;;12.70;99.90;;;;;;5018060;28;20653;-81
2022/06/12 04:21:54;;;;;;;;;;;12.70;99.90;;;;;;5004460;28;20283;-81
2022/06/12 04:24:34;;;;;;;;;;;12.90;99.90;;;;;;5029174;28;19952;-80
2022/06/12 04:27:06;;;;;;;;;;;13.00;99.90;;;;;;5023162;28;19921;-80
2022/06/12 04:29:33;;;;;;;;;;;13.10;99.90;;;;;;5070115;28;19920;-81
2022/06/12 04:32:01;;;;;;;;;;;13.30;99.90;;;;;;5016608;28;20367;-82
2022/06/12 04:34:29;;;;;;;;;;;13.40;99.90;;;;;;5017904;28;19921;-81
2022/06/12 04:36:57;;;;;;;;;;;13.50;99.90;;;;;;5050052;28;19921;-81
2022/06/12 04:39:25;;;;;;;;;;;13.60;99.90;;;;;;5005066;28;19928;-81
2022/06/12 04:41:51;;;;;;;;;;;13.70;99.90;;;;;;5036266;28;19924;-83
2022/06/12 04:44:16;;;;;;;;;;;13.70;99.90;;;;;;5044658;28;20294;-81
2022/06/12 04:46:43;;;;;;;;;;;13.80;99.90;;;;;;5043894;28;19943;-82
2022/06/12 04:49:11;;;;;;;;;;;13.80;99.90;;;;;;5041433;28;19921;-83
2022/06/12 04:51:37;;;;;;;;;;;13.80;99.90;;;;;;5003094;28;19967;-80
2022/06/12 04:54:02;;;;;;;;;;;13.90;99.90;;;;;;5037041;28;20304;-81
2022/06/12 04:56:30;;;;;;;;;;;13.90;99.90;;;;;;5037074;28;19916;-82
2022/06/12 04:58:55;;;;;;;;;;;13.90;99.90;;;;;;5012265;28;19947;-79
2022/06/12 05:01:23;;;;;;;;;;;13.80;99.90;;;;;;5014092;28;19916;-81
2022/06/12 05:03:56;;;;;;;;;;;13.80;99.90;;;;;;4997453;28;19923;-82
2022/06/12 05:06:22;;;;;;;;;;;13.70;99.90;;;;;;5019327;28;19955;-80
2022/06/12 05:08:48;;;;;;;;;;;13.60;99.90;;;;;;5017117;28;19928;-83
2022/06/12 05:11:20;;;;;;;;;;;13.60;99.90;;;;;;5034247;28;19917;-81
2022/06/12 05:13:45;;;;;;;;;;;13.70;99.90;;;;;;5036524;28;20333;-80
2022/06/12 05:16:40;;;;;;;;;;;13.60;99.90;;;;;;5054303;28;19916;-81
2022/06/12 05:19:08;;;;;;;;;;;13.60;99.90;;;;;;5004084;28;19956;-82
2022/06/12 05:21:34;;;;;;;;;;;13.60;99.90;;;;;;5002122;28;20047;-81
2022/06/12 05:24:00;;;;;;;;;;;13.70;99.90;;;;;;5039993;28;19959;-82
2022/06/12 05:26:26;;;;;;;;;;;13.80;99.90;;;;;;5030688;28;19967;-83
2022/06/12 05:28:52;;;;;;;;;;;13.90;99.90;;;;;;5029276;28;19925;-81
2022/06/12 05:31:17;;;;;;;;;;;14.00;99.90;;;;;;5012563;28;19924;-81
2022/06/12 05:33:44;;;;;;;;;;;14.10;99.90;;;;;;5001866;28;19917;-79
2022/06/12 05:36:12;;;;;;;;;;;14.20;99.90;;;;;;5044604;28;19923;-80
2022/06/12 05:38:38;;;;;;;;;;;14.30;99.90;;;;;;5006369;28;19920;-80
2022/06/12 05:41:03;;;;;;;;;;;14.40;99.90;;;;;;5020380;28;19917;-83
2022/06/12 05:43:29;;;;;;;;;;;14.50;99.90;;;;;;5017522;28;19921;-82
2022/06/12 05:45:55;;;;;;;;;;;14.60;99.90;;;;;;5035614;28;19967;-82
2022/06/12 05:48:21;;;;;;;;;;;14.70;99.90;;;;;;5005845;28;19917;-81
2022/06/12 05:50:52;;;;;;;;;;;14.70;99.90;;;;;;5015365;28;19917;-82
2022/06/12 05:53:19;;;;;;;;;;;14.80;99.90;;;;;;4997049;28;19921;-79
2022/06/12 05:55:44;;;;;;;;;;;15.00;99.90;;;;;;5024615;28;20056;-82
2022/06/12 05:58:11;;;;;;;;;;;15.10;99.90;;;;;;5031450;28;19917;-81
2022/06/12 06:00:38;;;;;;;;;;;15.20;99.90;;;;;;5034974;28;19943;-80
2022/06/12 06:03:03;;;;;;;;;;;15.30;99.90;;;;;;5021727;28;19917;-79
2022/06/12 06:05:29;;;;;;;;;;;15.40;99.90;;;;;;5008835;28;19923;-81
2022/06/12 06:07:56;;;;;;;;;;;15.50;99.90;;;;;;5024109;28;20436;-81
2022/06/12 06:10:24;;;;;;;;;;;15.60;99.90;;;;;;5058215;28;20406;-82
2022/06/12 06:12:50;;;;;;;;;;;15.80;99.90;;;;;;5008929;28;20394;-79
2022/06/12 06:15:16;;;;;;;;;;;16.00;99.90;;;;;;5035093;28;19952;-81
2022/06/12 06:17:42;;;;;;;;;;;16.10;99.90;;;;;;5034705;28;19916;-81
2022/06/12 06:20:09;;;;;;;;;;;16.00;99.90;;;;;;5034023;28;19923;-80
2022/06/12 06:22:37;;;;;;;;;;;16.00;99.90;;;;;;5052724;28;19916;-81
2022/06/12 06:25:03;;;;;;;;;;;16.00;99.90;;;;;;5022931;28;19924;-80
2022/06/12 06:27:28;;;;;;;;;;;16.10;99.90;;;;;;5022108;28;19923;-83
2022/06/12 06:29:55;;;;;;;;;;;16.30;99.90;;;;;;5035498;28;20358;-80
2022/06/12 06:32:21;;;;;;;;;;;16.40;99.90;;;;;;5021156;28;19916;-78
2022/06/12 06:34:46;;;;;;;;;;;16.70;99.90;;;;;;5007203;28;20422;-80
2022/06/12 06:37:12;;;;;;;;;;;16.90;99.90;;;;;;5035630;28;19916;-80
2022/06/12 06:39:38;;;;;;;;;;;16.90;99.90;;;;;;5015153;28;19917;-79
2022/06/12 06:42:05;;;;;;;;;;;16.80;99.90;;;;;;5047175;28;19921;-82
2022/06/12 06:47:17;;;;;;;;;;;16.90;99.90;;;;;;5029244;28;19967;-82
2022/06/12 06:49:43;;;;;;;;;;;16.90;99.90;;;;;;5047974;28;19987;-82
2022/06/12 06:52:09;;;;;;;;;;;16.90;99.90;;;;;;5015708;28;19924;-81
2022/06/12 06:54:38;;;;;;;;;;;17.00;99.90;;;;;;5033099;28;19940;-80
2022/06/12 06:57:10;;;;;;;;;;;17.20;99.90;;;;;;5023656;28;19924;-82
2022/06/12 06:59:37;;;;;;;;;;;17.30;99.90;;;;;;5033454;28;20373;-81
2022/06/12 07:02:03;;;;;;;;;;;17.40;99.90;;;;;;5029009;28;19916;-82
2022/06/12 07:04:28;;;;;;;;;;;17.60;99.90;;;;;;5027484;28;20423;-82
2022/06/12 07:06:54;;;;;;;;;;;17.70;99.90;;;;;;5017091;28;20371;-81
2022/06/12 07:09:29;;;;;;;;;;;17.60;99.90;;;;;;5033015;28;19921;-80
2022/06/12 07:11:59;;;;;;;;;;;17.60;99.90;;;;;;5056388;28;20396;-80
2022/06/12 07:14:25;;;;;;;;;;;17.50;99.90;;;;;;5007536;28;20290;-79
2022/06/12 07:16:50;;;;;;;;;;;17.00;99.90;;;;;;5015210;28;19916;-81
2022/06/12 07:19:17;;;;;;;;;;;17.70;99.90;;;;;;5008077;28;19939;-81
2022/06/12 07:21:44;;;;;;;;;;;17.90;99.90;;;;;;5048274;28;20267;-83
2022/06/12 07:24:11;;;;;;;;;;;18.00;99.90;;;;;;5059015;28;19917;-81
2022/06/12 07:26:39;;;;;;;;;;;18.00;99.90;;;;;;5020156;28;20278;-82
2022/06/12 07:29:05;;;;;;;;;;;18.00;99.90;;;;;;5025033;28;19928;-80
2022/06/12 07:31:31;;;;;;;;;;;18.10;99.90;;;;;;5013749;28;19917;-81
2022/06/12 07:33:57;;;;;;;;;;;18.10;99.90;;;;;;4998533;28;19917;-80
2022/06/12 07:36:23;;;;;;;;;;;18.20;99.90;;;;;;5014591;28;19944;-82
2022/06/12 07:38:49;;;;;;;;;;;18.20;99.90;;;;;;5030909;28;19920;-81
2022/06/12 07:41:15;;;;;;;;;;;18.30;99.90;;;;;;5026966;28;19924;-82
2022/06/12 07:43:42;;;;;;;;;;;18.40;99.90;;;;;;5018705;28;19955;-79
2022/06/12 07:46:10;;;;;;;;;;;18.70;99.90;;;;;;5024838;28;20362;-80
2022/06/12 07:48:38;;;;;;;;;;;18.90;99.90;;;;;;5036176;28;19924;-81
2022/06/12 07:51:07;;;;;;;;;;;19.10;99.90;;;;;;5015598;28;20430;-80
2022/06/12 07:53:33;;;;;;;;;;;18.80;99.90;;;;;;5005680;28;20322;-82
2022/06/12 07:55:58;;;;;;;;;;;19.00;99.90;;;;;;5024647;28;20007;-78
2022/06/12 07:58:24;;;;;;;;;;;19.10;99.90;;;;;;5027875;28;20028;-80
2022/06/12 08:00:52;;;;;;;;;;;19.20;99.90;;;;;;4995405;28;19939;-82
2022/06/12 08:03:18;;;;;;;;;;;19.10;99.90;;;;;;5011482;28;19920;-81
2022/06/12 08:05:43;;;;;;;;;;;19.10;99.90;;;;;;5031351;28;19939;-81
2022/06/12 08:08:10;;;;;;;;;;;19.30;99.90;;;;;;5048134;28;19931;-84
2022/06/12 08:10:39;;;;;;;;;;;19.40;99.90;;;;;;5031629;28;19929;-80
2022/06/12 08:13:07;;;;;;;;;;;19.60;99.90;;;;;;5033548;28;19927;-81
2022/06/12 08:15:33;;;;;;;;;;;19.80;99.90;;;;;;5025983;28;19943;-81
2022/06/12 08:17:58;;;;;;;;;;;19.80;99.90;;;;;;5015159;28;19917;-82
2022/06/12 08:20:25;;;;;;;;;;;19.90;99.90;;;;;;5047867;28;19921;-81
2022/06/12 08:23:26;;;;;;;;;;;19.90;99.90;;;;;;5060867;28;19947;-82
2022/06/12 08:25:56;;;;;;;;;;;19.90;99.90;;;;;;5012071;28;19927;-79
2022/06/12 08:28:23;;;;;;;;;;;20.10;99.90;;;;;;5026335;28;19924;-80
2022/06/12 08:30:48;;;;;;;;;;;20.40;99.90;;;;;;5041916;28;19921;-81
2022/06/12 08:33:14;;;;;;;;;;;20.70;99.90;;;;;;5017341;28;19917;-80
2022/06/12 08:35:40;;;;;;;;;;;20.70;99.90;;;;;;5024283;28;19917;-79
2022/06/12 08:38:06;;;;;;;;;;;20.80;99.90;;;;;;5009770;28;19970;-80
2022/06/12 08:40:50;;;;;;;;;;;21.00;99.90;;;;;;5033113;28;19932;-79
2022/06/12 08:43:20;;;;;;;;;;;21.20;99.90;;;;;;5007114;28;19921;-80
2022/06/12 08:45:49;;;;;;;;;;;21.00;99.90;;;;;;5045660;28;19921;-79
2022/06/12 08:48:25;;;;;;;;;;;20.80;99.90;;;;;;5042233;28;20343;-81
2022/06/12 08:51:02;;;;;;;;;;;20.70;99.90;;;;;;5017279;28;19917;-81
2022/06/12 08:53:42;;;;;;;;;;;20.60;99.90;;;;;;5046020;28;19947;-79
2022/06/12 08:56:15;;;;;;;;;;;20.60;99.90;;;;;;4995489;28;19967;-80
2022/06/12 08:59:04;;;;;;;;;;;20.50;99.90;;;;;;5029892;28;19940;-80
2022/06/12 09:01:29;;;;;;;;;;;20.70;99.90;;;;;;5037242;28;19917;-81
2022/06/12 09:03:55;;;;;;;;;;;21.10;99.90;;;;;;5006996;28;20290;-80
2022/06/12 09:06:39;;;;;;;;;;;21.20;99.90;;;;;;5013024;28;19924;-81
2022/06/12 09:09:24;;;;;;;;;;;21.30;99.90;;;;;;5028256;28;19925;-80
2022/06/12 09:11:49;;;;;;;;;;;21.20;99.90;;;;;;5032991;28;20358;-81
2022/06/12 09:14:38;;;;;;;;;;;21.00;99.90;;;;;;5062673;28;19921;-80
2022/06/12 09:17:28;;;;;;;;;;;20.90;99.90;;;;;;5062282;28;19917;-79
2022/06/12 09:20:14;;;;;;;;;;;20.80;99.90;;;;;;5022918;28;20007;-80
2022/06/12 09:22:49;;;;;;;;;;;20.60;99.90;;;;;;5006813;28;19916;-81
2022/06/12 09:25:19;;;;;;;;;;;20.40;99.90;;;;;;5030678;28;19917;-80
2022/06/12 09:27:51;;;;;;;;;;;20.20;99.90;;;;;;5041390;28;19929;-81
2022/06/12 09:30:24;;;;;;;;;;;20.00;99.90;;;;;;5040821;28;19925;-80
2022/06/12 09:33:11;;;;;;;;;;;19.90;99.90;;;;;;5005197;28;19917;-80
2022/06/12 09:35:55;;;;;;;;;;;19.80;99.90;;;;;;5049252;28;20274;-80
2022/06/12 09:38:38;;;;;;;;;;;19.80;99.90;;;;;;5017133;28;19975;-80
2022/06/12 09:41:04;;;;;;;;;;;20.00;99.90;;;;;;4999079;28;20004;-81
2022/06/12 09:43:43;;;;;;;;;;;20.40;99.90;;;;;;5032584;28;19990;-81
2022/06/12 09:46:14;;;;;;;;;;;20.80;99.90;;;;;;5036329;28;19925;-80
2022/06/12 09:48:59;;;;;;;;;;;21.30;99.90;;;;;;5003342;28;19970;-79
2022/06/12 09:51:38;;;;;;;;;;;21.60;99.90;;;;;;5035077;28;19971;-79
2022/06/12 09:54:07;;;;;;;;;;;21.50;99.90;;;;;;5016334;28;19924;-80
2022/06/12 09:56:44;;;;;;;;;;;21.30;99.90;;;;;;5051146;28;20008;-81
2022/06/12 09:59:39;;;;;;;;;;;21.10;99.90;;;;;;5044072;28;19966;-81
2022/06/12 10:02:14;;;;;;;;;;;20.80;99.90;;;;;;4993526;28;19975;-82
2022/06/12 10:05:09;;;;;;;;;;;20.70;99.90;;;;;;5062265;28;20011;-80
2022/06/12 10:07:42;;;;;;;;;;;20.70;99.90;;;;;;5015092;28;19921;-79
2022/06/12 10:10:16;;;;;;;;;;;21.00;99.90;;;;;;5052469;28;20392;-78
2022/06/12 10:12:46;;;;;;;;;;;21.30;99.90;;;;;;5057786;28;20390;-80
2022/06/12 10:15:15;;;;;;;;;;;21.50;99.90;;;;;;5035771;28;20345;-80
2022/06/12 10:18:10;;;;;;;;;;;21.50;99.90;;;;;;5035061;28;19916;-79
2022/06/12 10:20:43;;;;;;;;;;;21.20;97.60;;;;;;5033010;28;19982;-80
2022/06/12 10:23:12;;;;;;;;;;;21.10;97.60;;;;;;5033273;28;19971;-80
2022/06/12 10:25:49;;;;;;;;;;;21.20;99.00;;;;;;5025400;28;19967;-79
2022/06/12 10:28:14;;;;;;;;;;;21.50;96.00;;;;;;5018468;28;20261;-81
2022/06/12 10:30:42;;;;;;;;;;;21.60;95.90;;;;;;5012920;28;19928;-80
2022/06/12 10:33:19;;;;;;;;;;;21.60;96.20;;;;;;5015113;28;19964;-80
2022/06/12 10:35:47;;;;;;;;;;;21.40;95.80;;;;;;5002718;28;19925;-80
2022/06/12 10:38:15;;;;;;;;;;;21.30;95.30;;;;;;5012420;28;19970;-82
2022/06/12 10:40:52;;;;;;;;;;;21.30;94.30;;;;;;5011444;28;19924;-79
2022/06/12 10:43:36;;;;;;;;;;;21.50;92.70;;;;;;5015429;28;19964;-80
2022/06/12 10:46:14;;;;;;;;;;;21.70;93.60;;;;;;5037826;28;19917;-79
2022/06/12 10:48:42;;;;;;;;;;;21.70;91.00;;;;;;5046016;28;19976;-80
2022/06/12 10:51:13;;;;;;;;;;;21.30;91.50;;;;;;5018468;28;19948;-79
2022/06/12 10:53:40;;;;;;;;;;;21.00;92.60;;;;;;5033621;28;19928;-81
2022/06/12 10:56:14;;;;;;;;;;;21.10;94.10;;;;;;5067804;28;19925;-81
2022/06/12 10:58:43;;;;;;;;;;;21.30;94.40;;;;;;5039151;28;19917;-80
2022/06/12 11:01:18;;;;;;;;;;;21.60;94.40;;;;;;5007358;28;20373;-81
2022/06/12 11:03:55;;;;;;;;;;;21.90;94.80;;;;;;5015266;28;19920;-79
2022/06/12 11:06:23;;;;;;;;;;;22.00;93.40;;;;;;5062840;28;19916;-79
2022/06/12 11:08:55;;;;;;;;;;;21.80;93.80;;;;;;5036078;28;19963;-79
2022/06/12 11:11:44;;;;;;;;;;;21.80;93.80;;;;;;5023105;28;19917;-80
2022/06/12 11:14:26;;;;;;;;;;;21.80;94.00;;;;;;4990930;28;20325;-79
2022/06/12 11:16:57;;;;;;;;;;;21.90;93.10;;;;;;5048732;28;19996;-79
2022/06/12 11:19:33;;;;;;;;;;;22.00;94.90;;;;;;5048257;28;20004;-81
2022/06/12 11:22:18;;;;;;;;;;;21.90;92.10;;;;;;5018392;28;19925;-80
2022/06/12 11:24:58;;;;;;;;;;;21.70;91.00;;;;;;5015574;28;20369;-79
2022/06/12 11:27:36;;;;;;;;;;;21.50;90.60;;;;;;5006008;28;19925;-79
2022/06/12 11:30:04;;;;;;;;;;;21.20;91.30;;;;;;5022079;28;19927;-79
2022/06/12 11:32:33;;;;;;;;;;;21.10;92.10;;;;;;5014668;28;19917;-79
2022/06/12 11:35:26;;;;;;;;;;;21.20;92.10;;;;;;4997781;28;19924;-80
2022/06/12 11:38:10;;;;;;;;;;;21.30;92.20;;;;;;4991262;28;19943;-80
2022/06/12 11:40:53;;;;;;;;;;;21.50;90.20;;;;;;5025102;28;19920;-81
2022/06/12 11:43:19;;;;;;;;;;;21.30;89.50;;;;;;5019667;28;20424;-79
2022/06/12 11:45:50;;;;;;;;;;;21.20;91.50;;;;;;5047722;28;19964;-80
2022/06/12 11:48:26;;;;;;;;;;;21.30;92.20;;;;;;5047291;28;20329;-79
2022/06/12 11:51:18;;;;;;;;;;;21.50;91.60;;;;;;5014865;28;19921;-79
2022/06/12 11:53:46;;;;;;;;;;;21.50;91.00;;;;;;4983974;28;19921;-80
2022/06/12 11:56:13;;;;;;;;;;;21.30;93.10;;;;;;5033234;28;19979;-80
2022/06/12 11:58:57;;;;;;;;;;;21.40;92.30;;;;;;5014140;28;19924;-79
2022/06/12 12:01:49;;;;;;;;;;;21.70;92.70;;;;;;5031591;28;20402;-80
2022/06/12 12:04:22;;;;;;;;;;;21.90;91.10;;;;;;5032352;28;19999;-79
2022/06/12 12:06:55;;;;;;;;;;;21.60;90.70;;;;;;5020431;28;20366;-79
2022/06/12 12:09:33;;;;;;;;;;;21.50;90.40;;;;;;5024380;28;19921;-81
2022/06/12 12:12:06;;;;;;;;;;;21.60;89.70;;;;;;5044275;28;19967;-81
2022/06/12 12:14:34;;;;;;;;;;;21.80;89.10;;;;;;5056654;28;19916;-79
2022/06/12 12:17:13;;;;;;;;;;;21.80;90.20;;;;;;5036603;28;19917;-79
2022/06/12 12:19:42;;;;;;;;;;;21.90;89.50;;;;;;5024197;28;19921;-80
2022/06/12 12:22:23;;;;;;;;;;;22.10;85.30;;;;;;5023724;28;19968;-79
2022/06/12 12:24:57;;;;;;;;;;;22.20;85.90;;;;;;5023305;28;19920;-79
2022/06/12 12:27:35;;;;;;;;;;;22.40;86.20;;;;;;5018679;28;20410;-80
2022/06/12 12:30:07;;;;;;;;;;;22.50;83.50;;;;;;5020479;28;20283;-79
2022/06/12 12:32:33;;;;;;;;;;;22.30;81.70;;;;;;5022030;28;19924;-77
2022/06/12 12:35:00;;;;;;;;;;;22.20;82.90;;;;;;5020190;28;19921;-80
2022/06/12 12:43:17;;;;;;;;;;;22.00;82.50;;;;;;5036359;28;20285;-80
2022/06/12 12:45:43;;;;;;;;;;;21.90;83.40;;;;;;5008748;28;19924;-80
2022/06/12 12:48:11;;;;;;;;;;;22.10;85.70;;;;;;5027461;28;19917;-79
2022/06/12 12:50:44;;;;;;;;;;;22.40;84.20;;;;;;5017657;28;19979;-80
2022/06/12 12:53:20;;;;;;;;;;;22.40;86.40;;;;;;5050165;28;19995;-79
2022/06/12 12:55:55;;;;;;;;;;;22.20;86.30;;;;;;5027264;28;19920;-78
2022/06/12 12:58:23;;;;;;;;;;;22.20;83.30;;;;;;5034884;28;19923;-78
2022/06/12 13:00:49;;;;;;;;;;;22.40;83.00;;;;;;5027121;28;19916;-80
2022/06/12 13:03:28;;;;;;;;;;;22.30;80.80;;;;;;5003830;28;19948;-80
2022/06/12 13:06:08;;;;;;;;;;;21.80;80.30;;;;;;5017310;28;19924;-78
2022/06/12 13:08:33;;;;;;;;;;;21.60;84.20;;;;;;5036357;28;20049;-80
2022/06/12 13:11:00;;;;;;;;;;;21.50;84.90;;;;;;5036942;28;19917;-80
2022/06/12 13:13:29;;;;;;;;;;;21.70;86.60;;;;;;5034522;28;20015;-79
2022/06/12 13:16:13;;;;;;;;;;;22.00;87.60;;;;;;5019529;28;19917;-79
2022/06/12 13:19:03;;;;;;;;;;;22.30;86.10;;;;;;5023499;28;19939;-80
2022/06/12 13:21:35;;;;;;;;;;;22.90;88.50;;;;;;5018464;28;19917;-80
2022/06/12 13:24:09;;;;;;;;;;;23.20;84.10;;;;;;5037037;28;20422;-80
2022/06/12 13:26:36;;;;;;;;;;;23.30;83.50;;;;;;5050952;28;20068;-79
2022/06/12 13:29:04;;;;;;;;;;;23.10;80.10;;;;;;5017651;28;19947;-78
2022/06/12 13:31:35;;;;;;;;;;;22.90;81.30;;;;;;5031019;28;19939;-78
2022/06/12 13:34:01;;;;;;;;;;;23.10;81.60;;;;;;5028497;28;20274;-78
2022/06/12 13:36:39;;;;;;;;;;;23.40;81.70;;;;;;5036415;28;19928;-79
2022/06/12 13:39:26;;;;;;;;;;;23.50;79.90;;;;;;5030829;28;19916;-78
2022/06/12 13:41:55;;;;;;;;;;;23.50;80.30;;;;;;5019619;28;19935;-79
2022/06/12 13:44:35;;;;;;;;;;;23.50;77.10;;;;;;5035032;28;19917;-79
2022/06/12 13:47:16;;;;;;;;;;;23.20;76.80;;;;;;5035833;28;19966;-80
2022/06/12 13:49:45;;;;;;;;;;;23.20;75.90;;;;;;4999501;28;19968;-80
2022/06/12 13:52:46;;;;;;;;;;;22.20;79.20;;;;;;5007458;28;19971;-80
2022/06/12 13:55:38;;;;;;;;;;;22.20;80.00;;;;;;4949740;28;19980;-79
2022/06/12 13:58:08;;;;;;;;;;;22.30;88.20;;;;;;4983582;28;19947;-79
2022/06/12 14:00:36;;;;;;;;;;;21.80;90.80;;;;;;5019566;28;20003;-78
2022/06/12 14:03:02;;;;;;;;;;;21.60;91.50;;;;;;5015209;28;20604;-81
2022/06/12 14:05:30;;;;;;;;;;;21.80;92.80;;;;;;5049276;28;20374;-80
2022/06/12 14:07:56;;;;;;;;;;;22.20;90.70;;;;;;5063670;28;20393;-78
2022/06/12 14:10:26;;;;;;;;;;;22.40;90.00;;;;;;5056625;28;19947;-79
2022/06/12 14:12:51;;;;;;;;;;;22.60;88.50;;;;;;5019074;28;19916;-79
2022/06/12 14:15:25;;;;;;;;;;;22.70;86.50;;;;;;5001776;28;20369;-79
2022/06/12 14:17:59;;;;;;;;;;;22.80;87.80;;;;;;5035591;28;19925;-80
2022/06/12 14:20:26;;;;;;;;;;;23.30;89.40;;;;;;5026411;28;19924;-79
2022/06/12 14:22:55;;;;;;;;;;;23.60;85.10;;;;;;5028893;28;19923;-82
2022/06/12 14:25:21;;;;;;;;;;;23.80;84.90;;;;;;5032541;28;19922;-79
2022/06/12 14:27:58;;;;;;;;;;;23.80;83.90;;;;;;5018482;28;19995;-82
2022/06/12 14:30:44;;;;;;;;;;;23.80;85.40;;;;;;5017502;28;19951;-78
2022/06/12 14:33:24;;;;;;;;;;;23.70;84.00;;;;;;5018848;28;20373;-81
2022/06/12 14:35:50;;;;;;;;;;;23.30;82.50;;;;;;5036000;28;20373;-79
2022/06/12 14:38:20;;;;;;;;;;;22.50;84.20;;;;;;4986851;28;19924;-79
2022/06/12 14:40:46;;;;;;;;;;;22.30;88.30;;;;;;4999201;28;19921;-80
2022/06/12 14:43:30;;;;;;;;;;;22.00;90.50;;;;;;5029687;28;19920;-80
2022/06/12 14:46:01;;;;;;;;;;;21.60;92.10;;;;;;5025330;28;20007;-79
2022/06/12 14:48:32;;;;;;;;;;;21.70;93.90;;;;;;5030684;28;19943;-77
2022/06/12 14:51:00;;;;;;;;;;;22.40;93.20;;;;;;5043945;28;19939;-78
2022/06/12 14:53:28;;;;;;;;;;;22.90;90.60;;;;;;4998201;28;19925;-80
2022/06/12 14:55:54;;;;;;;;;;;23.20;90.00;;;;;;5058252;28;19917;-81
2022/06/12 14:58:39;;;;;;;;;;;23.40;89.30;;;;;;5015736;28;19923;-79
2022/06/12 15:01:18;;;;;;;;;;;23.00;87.30;;;;;;5038556;28;20313;-79